地図

経路データ

SID SEASON NUMBER BASIN SUBBASIN NAME ISO_TIME NATURE LAT LON WMO_WIND WMO_PRES WMO_AGENCY TRACK_TYPE DIST2LAND LANDFALL IFLAG USA_AGENCY USA_ATCF_ID USA_LAT USA_LON USA_RECORD USA_STATUS USA_WIND USA_PRES USA_SSHS USA_R34_NE USA_R34_SE USA_R34_SW USA_R34_NW USA_R50_NE USA_R50_SE USA_R50_SW USA_R50_NW USA_R64_NE USA_R64_SE USA_R64_SW USA_R64_NW USA_POCI USA_ROCI USA_RMW USA_EYE TOKYO_LAT TOKYO_LON TOKYO_GRADE TOKYO_WIND TOKYO_PRES TOKYO_R50_DIR TOKYO_R50_LONG TOKYO_R50_SHORT TOKYO_R30_DIR TOKYO_R30_LONG TOKYO_R30_SHORT TOKYO_LAND CMA_LAT CMA_LON CMA_CAT CMA_WIND CMA_PRES HKO_LAT HKO_LON HKO_CAT HKO_WIND HKO_PRES NEWDELHI_LAT NEWDELHI_LON NEWDELHI_GRADE NEWDELHI_WIND NEWDELHI_PRES NEWDELHI_CI NEWDELHI_DP NEWDELHI_POCI REUNION_LAT REUNION_LON REUNION_TYPE REUNION_WIND REUNION_PRES REUNION_TNUM REUNION_CI REUNION_RMW REUNION_R34_NE REUNION_R34_SE REUNION_R34_SW REUNION_R34_NW REUNION_R50_NE REUNION_R50_SE REUNION_R50_SW REUNION_R50_NW REUNION_R64_NE REUNION_R64_SE REUNION_R64_SW REUNION_R64_NW BOM_LAT BOM_LON BOM_TYPE BOM_WIND BOM_PRES BOM_TNUM BOM_CI BOM_RMW BOM_R34_NE BOM_R34_SE BOM_R34_SW BOM_R34_NW BOM_R50_NE BOM_R50_SE BOM_R50_SW BOM_R50_NW BOM_R64_NE BOM_R64_SE BOM_R64_SW BOM_R64_NW BOM_ROCI BOM_POCI BOM_EYE BOM_POS_METHOD BOM_PRES_METHOD NADI_LAT NADI_LON NADI_CAT NADI_WIND NADI_PRES WELLINGTON_LAT WELLINGTON_LON WELLINGTON_WIND WELLINGTON_PRES DS824_LAT DS824_LON DS824_STAGE DS824_WIND DS824_PRES TD9636_LAT TD9636_LON TD9636_STAGE TD9636_WIND TD9636_PRES TD9635_LAT TD9635_LON TD9635_WIND TD9635_PRES TD9635_ROCI NEUMANN_LAT NEUMANN_LON NEUMANN_CLASS NEUMANN_WIND NEUMANN_PRES MLC_LAT MLC_LON MLC_CLASS MLC_WIND MLC_PRES USA_GUST BOM_GUST BOM_GUST_PER REUNION_GUST REUNION_GUST_PER USA_SEAHGT USA_SEARAD_NE USA_SEARAD_SE USA_SEARAD_SW USA_SEARAD_NW STORM_SPEED STORM_DIR
1987216N10270 1987 51 EP MM IRWIN 1987-08-03 18:00:00 TS 10.1000 -90.2000 30 hurdat_epa main 379 373 O_________O___ hurdat_epa EP091987 10.1000 -90.2000 TD 30 -1 10.1000 -90.2000 1 30 7 293
1987216N10270 1987 51 EP MM IRWIN 1987-08-03 21:00:00 TS 10.2433 -90.5395 main 377 363 P_________P___ EP091987 10.2450 -90.5375 TD 32 -1 10.2381 -90.5457 1 32 8 294
1987216N10270 1987 51 EP MM IRWIN 1987-08-04 00:00:00 TS 10.4000 -90.9000 35 hurdat_epa main 367 358 O_________O___ hurdat_epa EP091987 10.4000 -90.9000 TS 35 0 10.4000 -90.9000 2 35 8 295
1987216N10270 1987 51 EP MM IRWIN 1987-08-04 03:00:00 TS 10.5841 -91.2922 main 363 348 P_________P___ EP091987 10.5775 -91.3001 TS 35 0 10.6039 -91.2687 2 35 9 298
1987216N10270 1987 51 EP MM IRWIN 1987-08-04 06:00:00 TS 10.8114 -91.6867 35 hurdat_epa main 349 322 O_________P___ hurdat_epa EP091987 10.8000 -91.7000 TS 35 0 10.8454 -91.6467 2 35 9 304
1987216N10270 1987 51 EP MM IRWIN 1987-08-04 09:00:00 TS 11.0922 -92.0498 main 322 304 P_________P___ EP091987 11.0849 -92.0575 TS 35 0 11.1142 -92.0264 2 35 9 310
1987216N10270 1987 51 EP MM IRWIN 1987-08-04 12:00:00 TS 11.4000 -92.4000 35 hurdat_epa main 304 289 O_________O___ hurdat_epa EP091987 11.4000 -92.4000 TS 35 0 11.4000 -92.4000 2 35 9 311
1987216N10270 1987 51 EP MM IRWIN 1987-08-04 15:00:00 TS 11.7024 -92.7539 main 295 278 P_________P___ EP091987 11.7000 -92.7501 TS 40 0 11.7099 -92.7652 2 37 9 311
1987216N10270 1987 51 EP MM IRWIN 1987-08-04 18:00:00 TS 12.0075 -93.1056 45 hurdat_epa main 283 274 O_________P___ hurdat_epa EP091987 12.0000 -93.1000 TS 45 0 12.0299 -93.1223 2 40 9 312
1987216N10270 1987 51 EP MM IRWIN 1987-08-04 21:00:00 TS 12.3256 -93.4602 main 281 267 P_________P___ EP091987 12.3225 -93.4575 TS 45 0 12.3349 -93.4683 2 42 9 311
1987216N10270 1987 51 EP MM IRWIN 1987-08-05 00:00:00 TS 12.6000 -93.8000 45 hurdat_epa main 274 272 O_________O___ hurdat_epa EP091987 12.6000 -93.8000 TS 45 0 12.6000 -93.8000 2 45 8 306
1987216N10270 1987 51 EP MM IRWIN 1987-08-05 03:00:00 TS 12.7786 -94.1074 main 280 280 P_________P___ EP091987 12.7724 -94.1076 TS 47 0 12.7969 -94.1067 2 45 7 298
1987216N10270 1987 51 EP MM IRWIN 1987-08-05 06:00:00 TS 12.9130 -94.4001 50 hurdat_epa main 295 295 O_________P___ hurdat_epa EP091987 12.9000 -94.4000 TS 50 0 12.9521 -94.4005 2 45 6 297
1987216N10270 1987 51 EP MM IRWIN 1987-08-05 09:00:00 TS 13.0634 -94.6929 main 303 303 P_________P___ EP091987 13.0574 -94.6925 TS 47 0 13.0813 -94.6941 2 45 7 296
1987216N10270 1987 51 EP MM IRWIN 1987-08-05 12:00:00 TS 13.2000 -95.0000 45 hurdat_epa main 308 285 O_________O___ hurdat_epa EP091987 13.2000 -95.0000 TS 45 0 13.2000 -95.0000 2 45 7 291
1987216N10270 1987 51 EP MM IRWIN 1987-08-05 15:00:00 TS 13.3029 -95.3379 main 285 263 P_________P___ EP091987 13.3000 -95.3426 TS 45 0 13.3117 -95.3239 2 46 7 287
1987216N10270 1987 51 EP MM IRWIN 1987-08-05 18:00:00 TS 13.4049 -95.6908 45 hurdat_epa main 263 243 O_________P___ hurdat_epa EP091987 13.4000 -95.7000 TS 45 0 13.4197 -95.6632 2 47 7 289
1987216N10270 1987 51 EP MM IRWIN 1987-08-05 21:00:00 TS 13.5370 -96.0484 main 243 213 P_________P___ EP091987 13.5350 -96.0575 TS 47 0 13.5429 -96.0209 2 48 8 293
1987216N10270 1987 51 EP MM IRWIN 1987-08-06 00:00:00 TS 13.7000 -96.4000 50 hurdat_epa main 213 190 O_________O___ hurdat_epa EP091987 13.7000 -96.4000 TS 50 0 13.7000 -96.4000 2 50 7 299
1987216N10270 1987 51 EP MM IRWIN 1987-08-06 03:00:00 TS 13.8854 -96.6995 main 190 173 P_________P___ EP091987 13.8773 -96.6702 TS 50 0 13.9098 -96.7873 2 48 8 303
1987216N10270 1987 51 EP MM IRWIN 1987-08-06 06:00:00 TS 14.1137 -97.0494 50 hurdat_epa main 173 163 O_________P___ hurdat_epa EP091987 14.1000 -97.0000 TS 50 0 14.1546 -97.1978 2 47 10 302
1987216N10270 1987 51 EP MM IRWIN 1987-08-06 09:00:00 TS 14.3944 -97.5485 main 163 147 P_________P___ EP091987 14.3851 -97.5199 TS 47 0 14.4221 -97.6344 2 46 12 300
1987216N10270 1987 51 EP MM IRWIN 1987-08-06 12:00:00 TS 14.7000 -98.1000 45 hurdat_epa main 149 134 O_________O___ hurdat_epa EP091987 14.7000 -98.1000 TS 45 0 14.7000 -98.1000 2 45 12 301
1987216N10270 1987 51 EP MM IRWIN 1987-08-06 15:00:00 TS 15.0015 -98.6012 main 141 124 P_________P___ EP091987 15.0073 -98.6001 TS 50 0 14.9841 -98.6042 2 47 11 301
1987216N10270 1987 51 EP MM IRWIN 1987-08-06 18:00:00 TS 15.2931 -99.1087 55 hurdat_epa main 124 119 O_________P___ hurdat_epa EP091987 15.3000 -99.1000 TS 55 0 15.2726 -99.1347 2 50 12 299
1987216N10270 1987 51 EP MM IRWIN 1987-08-06 21:00:00 TS 15.5611 -99.6502 main 123 109 P_________P___ EP091987 15.5649 -99.6426 TS 55 0 15.5497 -99.6729 2 52 12 296
1987216N10270 1987 51 EP MM IRWIN 1987-08-07 00:00:00 TS 15.8000 -100.200 55 hurdat_epa main 114 110 O_________O___ hurdat_epa EP091987 15.8000 -100.200 TS 55 0 15.8000 -100.200 2 55 12 293
1987216N10270 1987 51 EP MM IRWIN 1987-08-07 03:00:00 TS 16.0131 -100.752 main 127 119 P_________P___ EP091987 16.0150 -100.773 TS 55 0 16.0073 -100.690 2 55 11 291
1987216N10270 1987 51 EP MM IRWIN 1987-08-07 06:00:00 TS 16.1967 -101.266 55 hurdat_epa main 123 116 O_________P___ hurdat_epa EP091987 16.2000 -101.300 TS 55 0 16.1869 -101.166 2 55 10 290
1987216N10270 1987 51 EP MM IRWIN 1987-08-07 09:00:00 TS 16.3493 -101.695 main 128 119 P_________P___ EP091987 16.3497 -101.715 TS 55 0 16.3480 -101.634 2 55 9 291
1987216N10270 1987 51 EP MM IRWIN 1987-08-07 12:00:00 TS 16.5000 -102.100 55 hurdat_epa main 138 134 O_________O___ hurdat_epa EP091987 16.5000 -102.100 TS 55 0 16.5000 -102.100 2 55 9 293
1987216N10270 1987 51 EP MM IRWIN 1987-08-07 15:00:00 TS 16.6999 -102.548 main 135 127 P_________P___ EP091987 16.7074 -102.535 TS 55 0 16.6774 -102.587 2 55 10 294
1987216N10270 1987 51 EP MM IRWIN 1987-08-07 18:00:00 TS 16.8862 -103.018 55 hurdat_epa main 130 127 O_________P___ hurdat_epa EP091987 16.9000 -103.000 TS 55 0 16.8448 -103.072 2 55 10 289
1987216N10270 1987 51 EP MM IRWIN 1987-08-07 21:00:00 TS 17.0143 -103.506 main 137 134 P_________P___ EP091987 17.0224 -103.493 TS 55 0 16.9899 -103.546 2 55 10 283
1987216N10270 1987 51 EP MM IRWIN 1987-08-08 00:00:00 TS 17.1000 -104.000 55 hurdat_epa main 144 144 O_________O___ hurdat_epa EP091987 17.1000 -104.000 TS 55 0 17.1000 -104.000 2 55 10 279
1987216N10270 1987 51 EP MM IRWIN 1987-08-08 03:00:00 TS 17.1649 -104.504 main 162 162 P_________P___ EP091987 17.1651 -104.530 TS 55 0 17.1646 -104.426 2 55 9 276
1987216N10270 1987 51 EP MM IRWIN 1987-08-08 06:00:00 TS 17.1986 -104.958 55 hurdat_epa main 200 200 O_________P___ hurdat_epa EP091987 17.2000 -105.000 TS 55 0 17.1945 -104.830 2 55 8 273
1987216N10270 1987 51 EP MM IRWIN 1987-08-08 09:00:00 TS 17.2060 -105.291 main 226 226 P_________P___ EP091987 17.2072 -105.315 TS 55 0 17.2022 -105.220 2 55 6 270
1987216N10270 1987 51 EP MM IRWIN 1987-08-08 12:00:00 TS 17.2000 -105.600 55 hurdat_epa main 239 239 O_________O___ hurdat_epa EP091987 17.2000 -105.600 TS 55 0 17.2000 -105.600 2 55 7 270
1987216N10270 1987 51 EP MM IRWIN 1987-08-08 15:00:00 TS 17.2017 -105.988 main 257 257 P_________P___ EP091987 17.2000 -105.993 TS 55 0 17.2065 -105.976 2 52 8 270
1987216N10270 1987 51 EP MM IRWIN 1987-08-08 18:00:00 TS 17.2016 -106.387 55 hurdat_epa main 280 280 O_________P___ hurdat_epa EP091987 17.2000 -106.400 TS 55 0 17.2064 -106.347 2 50 7 270
1987216N10270 1987 51 EP MM IRWIN 1987-08-08 21:00:00 TS 17.2007 -106.742 main 300 300 P_________P___ EP091987 17.1999 -106.750 TS 50 0 17.2032 -106.719 2 47 7 270
1987216N10270 1987 51 EP MM IRWIN 1987-08-09 00:00:00 TS 17.2000 -107.100 45 hurdat_epa main 330 330 O_________O___ hurdat_epa EP091987 17.2000 -107.100 TS 45 0 17.2000 -107.100 2 45 7 270
1987216N10270 1987 51 EP MM IRWIN 1987-08-09 03:00:00 TS 17.2000 -107.490 main 360 360 P_________P___ EP091987 17.2002 -107.488 TS 35 0 17.1994 -107.496 2 35 8 270
1987216N10270 1987 51 EP MM IRWIN 1987-08-09 06:00:00 TS 17.2000 -107.900 25 hurdat_epa main 391 O_________O___ hurdat_epa EP091987 17.2000 -107.900 TD 25 -1 17.2000 -107.900 1 25 8 270

IBTrACS Databaseについて

本データベースは、米国NOAAが公開する1842年以降の世界の熱帯低気圧のベストトラックデータアーカイブInternational Best Track Archive for Climate Stewardship (IBTrACS)を、ウェブで閲覧しやすい形式に変換したものです。

最終更新日:2021-11-26